Flight Track Log - Related Links

Times and Time Zones

All times are in EDT time to prevent confusion due to time zone crossing. See the WIG7406 flight status page for this flight to view local times or setup timezone preferences in your user account.


Time Position Orientation Groundspeed Altitude Reporting Facility
EDT Latitude Longitude Course Direction KTS MPH feet Rate Location/Type
Wed 07:22:11 PM 44.7817 -68.9219 222° Southwest 123 142 2,600  Level Boston Center
Wed 07:23:12 PM 44.7572 -68.9556 224° Southwest 123 142 3,400 689 Climbing Boston Center
Wed 07:24:13 PM 44.7311 -68.9856 219° Southwest 123 142 4,000 295 Climbing Boston Center
Wed 07:25:14 PM 44.7028 -69.0214 222° Southwest 130 150 4,000  Level Boston Center
Wed 07:26:00 PM 44.6269 -69.0537 222° Southwest  Level FlightAware Approximate
Wed 07:26:15 PM 44.6728 -69.0592 222° Southwest 141 162 4,000  Level Boston Center
Wed 07:27:00 PM 44.5968 -69.0912 222° Southwest  Level FlightAware Approximate
Wed 07:27:16 PM 44.6367 -69.1036 221° Southwest 141 162 4,000  Level Boston Center
Wed 07:28:17 PM 44.6075 -69.1422 223° Southwest 141 162 4,000  Level Boston Center
Wed 07:29:20 PM 44.5772 -69.1794 221° Southwest 141 162 4,000  Level Boston Center
Wed 07:30:21 PM 44.5478 -69.2161 222° Southwest 142 163 4,000  Level Boston Center
Wed 07:31:21 PM 44.5172 -69.2528 221° Southwest 142 163 4,000  Level Boston Center
Wed 07:32:23 PM 44.4883 -69.2906 223° Southwest 142 163 4,000  Level Boston Center
Wed 07:33:27 PM 44.4583 -69.3264 220° Southwest 142 163 4,000  Level Boston Center
Wed 07:34:28 PM 44.4300 -69.3619 222° Southwest 141 162 4,000  Level Boston Center
Wed 07:35:29 PM 44.4031 -69.4031 227° Southwest 141 162 4,000  Level Boston Center
Wed 07:36:30 PM 44.3781 -69.4428 229° Southwest 140 161 4,000  Level Boston Center
Wed 07:37:34 PM 44.3519 -69.4825 227° Southwest 139 160 4,000  Level Boston Center
Wed 07:38:34 PM 44.3256 -69.5242 228° Southwest 139 160 4,000  Level Boston Center
Wed 07:39:34 PM 44.2950 -69.5714 228° Southwest 139 160 4,000  Level Boston Center
Wed 07:41:26 PM 44.2481 -69.6450 228° Southwest 141 162 4,000  Level Boston Center
Wed 07:42:27 PM 44.2206 -69.6861 227° Southwest 141 162 4,000  Level Boston Center
Wed 07:43:28 PM 44.1944 -69.7275 229° Southwest 142 163 4,000  Level Boston Center
Wed 07:44:31 PM 44.1653 -69.7708 227° Southwest 142 163 4,000  Level Boston Center
Wed 07:45:32 PM 44.1389 -69.8119 228° Southwest 142 163 4,000  Level Boston Center
Wed 07:46:33 PM 44.1125 -69.8528 228° Southwest 142 163 4,000  Level Boston Center
Wed 07:47:35 PM 44.0842 -69.8958 228° Southwest 142 163 4,000  Level Boston Center
Wed 07:48:36 PM 44.0575 -69.9364 228° Southwest 142 163 4,000  Level Boston Center
Wed 07:49:38 PM 44.0311 -69.9775 228° Southwest 142 163 4,000  Level Boston Center
Wed 07:50:40 PM 44.0019 -70.0214 227° Southwest 142 163 4,000  Level Boston Center
Wed 07:51:41 PM 43.9750 -70.0622 227° Southwest 142 163 4,000  Level Boston Center
Wed 07:52:43 PM 43.9486 -70.1025 228° Southwest 143 165 4,000  Level Boston Center
Wed 07:53:44 PM 43.9200 -70.1458 227° Southwest 142 163 4,000  Level Boston Center
Wed 07:54:44 PM 43.8942 -70.1853 228° Southwest 142 163 4,000  Level Boston Center
Wed 07:55:45 PM 43.8681 -70.2250 228° Southwest 142 163 4,000  Level Boston Center
Wed 07:56:47 PM 43.8403 -70.2681 228° Southwest 141 162 4,000  Level Boston Center
Wed 07:57:50 PM 43.8250 -70.3217 248° West 149 171 4,000 -242 Level Boston Center
Wed 07:58:51 PM 43.8089 -70.3822 250° West 152 175 3,500 -492 Descending Boston Center
Wed 07:59:52 PM 43.7844 -70.4322 236° Southwest 158 182 3,000 -488 Descending Boston Center
Wed 08:00:54 PM 43.7536 -70.4772 227° Southwest 161 185 2,500 -537 Descending Boston Center
Wed 08:01:55 PM 43.7197 -70.5272 227° Southwest 162 186 1,900 -341 Descending Boston Center
Wed 08:02:57 PM 43.6764 -70.5386 191° South 160 184 1,800 -49 Descending Boston Center
Wed 08:03:58 PM 43.6553 -70.4903 121° Southeast 149 171 1,800 -99 Level Boston Center
Wed 08:04:58 PM 43.6525 -70.4289 94° East 148 170 1,600 -496 Descending Boston Center
Wed 08:05:59 PM 43.6486 -70.3700 102° East 151 174 800 -689 Descending Boston Center
Wed 08:06:00 PM 43.6442 -70.3733 102° East  Level FlightAware Approximate
Wed 08:07:00 PM 43.6450 -70.3192 96° East 149 171 200  Level Boston Center

Login

Don't have an account? Register now (free) for customized features, flight alerts, and more!